Lorraine, Kansas
Current Conditions -  °F | °C
As of 12:15 PM on Friday 28 Nov 2014 (Local Time) from KGBD Reporting Station
Clear Clear  
Wind Chill: 17°   Ceiling: Unl
Heat Index: 17°   Visibility: 10mi
Dew Point:   Wind: 13mph
Humidity: 32%   Direction: 190°S
Pressure: 29.84"   Gusts: NA
Location:  38.57°N, 98.32°W
Report Text: KGBD 281815Z AUTO 19011KT 10SM CLR 17/00 A2984 RMK AO1
Loading
Personal Weather Stations






























Interactive Weather Map New forecast layout! Learn more

10-Day Weather Forecast

Advertisements
Track Severe Weather on mobile